20°C Temp
15°C Dewpoint
73% Humidity
Temperature
10 KM/H
6 MPH
5 KTS
90°
Due East

Wind Speed
Mostly Scattered
Clouds
Pressure 1015.92 (hPa) - 30 (in)
Visibility 6.2 (mi) - 10.0 (km)

Current Conditions
LEMG
Location 9(km)
Metar :LEMG 201000Z 09005KT 060V130 9999 SCT013 BKN023 20/15 Q1016 NOSIG
Tue 20th October 12:00 pm

Airport
  Metar Aviation API Data Provided by https://www.checkwx.com/ PHP scripts by weather34.com ©2020